sensor_id;sensor_type;location;lat;lon;timestamp;temperature;humidity
5130;DHT22;2583;50.946;6.954;2022-08-11T00:01:26;22.90;24.90
5130;DHT22;2583;50.946;6.954;2022-08-11T00:03:59;22.80;24.90
5130;DHT22;2583;50.946;6.954;2022-08-11T00:06:35;22.70;25.10
5130;DHT22;2583;50.946;6.954;2022-08-11T00:09:07;22.70;25.30
5130;DHT22;2583;50.946;6.954;2022-08-11T00:11:47;22.70;25.50
5130;DHT22;2583;50.946;6.954;2022-08-11T00:14:25;22.60;25.40
5130;DHT22;2583;50.946;6.954;2022-08-11T00:17:11;22.60;25.60
5130;DHT22;2583;50.946;6.954;2022-08-11T00:19:44;22.50;25.60
5130;DHT22;2583;50.946;6.954;2022-08-11T00:22:33;22.60;24.50
5130;DHT22;2583;50.946;6.954;2022-08-11T00:25:14;22.60;24.80
5130;DHT22;2583;50.946;6.954;2022-08-11T00:27:42;22.60;25.00
5130;DHT22;2583;50.946;6.954;2022-08-11T00:30:11;22.50;25.10
5130;DHT22;2583;50.946;6.954;2022-08-11T00:32:42;22.50;25.40
5130;DHT22;2583;50.946;6.954;2022-08-11T00:35:14;22.50;24.80
5130;DHT22;2583;50.946;6.954;2022-08-11T00:38:04;22.40;25.00
5130;DHT22;2583;50.946;6.954;2022-08-11T00:40:41;22.40;24.70
5130;DHT22;2583;50.946;6.954;2022-08-11T00:46:26;22.40;24.80
5130;DHT22;2583;50.946;6.954;2022-08-11T01:00:22;22.20;25.00
5130;DHT22;2583;50.946;6.954;2022-08-11T01:12:20;22.20;24.80
5130;DHT22;2583;50.946;6.954;2022-08-11T01:21:02;22.10;25.20
5130;DHT22;2583;50.946;6.954;2022-08-11T01:38:30;22.10;24.90
5130;DHT22;2583;50.946;6.954;2022-08-11T01:43:43;22.10;25.00
5130;DHT22;2583;50.946;6.954;2022-08-11T01:50:01;22.00;24.70
5130;DHT22;2583;50.946;6.954;2022-08-11T01:53:04;21.90;24.90
5130;DHT22;2583;50.946;6.954;2022-08-11T01:55:59;21.90;25.60
5130;DHT22;2583;50.946;6.954;2022-08-11T02:01:35;21.80;25.40
5130;DHT22;2583;50.946;6.954;2022-08-11T02:06:49;21.70;25.50
5130;DHT22;2583;50.946;6.954;2022-08-11T02:18:03;21.70;24.70
5130;DHT22;2583;50.946;6.954;2022-08-11T02:20:45;21.70;25.10
5130;DHT22;2583;50.946;6.954;2022-08-11T02:23:53;21.70;25.10
5130;DHT22;2583;50.946;6.954;2022-08-11T02:26:43;21.70;24.80
5130;DHT22;2583;50.946;6.954;2022-08-11T02:29:22;21.80;25.50
5130;DHT22;2583;50.946;6.954;2022-08-11T02:32:23;21.80;25.50
5130;DHT22;2583;50.946;6.954;2022-08-11T02:35:24;21.90;25.50
5130;DHT22;2583;50.946;6.954;2022-08-11T02:38:13;21.90;25.80
5130;DHT22;2583;50.946;6.954;2022-08-11T02:43:34;21.90;26.00
5130;DHT22;2583;50.946;6.954;2022-08-11T02:46:33;21.90;26.30
5130;DHT22;2583;50.946;6.954;2022-08-11T02:49:10;21.80;26.60
5130;DHT22;2583;50.946;6.954;2022-08-11T02:52:07;21.70;27.50
5130;DHT22;2583;50.946;6.954;2022-08-11T02:57:17;21.60;27.90
5130;DHT22;2583;50.946;6.954;2022-08-11T02:59:56;21.60;28.30
5130;DHT22;2583;50.946;6.954;2022-08-11T03:13:21;21.50;28.90
5130;DHT22;2583;50.946;6.954;2022-08-11T03:16:17;21.50;28.80
5130;DHT22;2583;50.946;6.954;2022-08-11T03:19:25;21.50;27.60
5130;DHT22;2583;50.946;6.954;2022-08-11T03:22:18;21.50;27.80
5130;DHT22;2583;50.946;6.954;2022-08-11T03:27:49;21.50;26.90
5130;DHT22;2583;50.946;6.954;2022-08-11T03:30:22;21.50;26.60
5130;DHT22;2583;50.946;6.954;2022-08-11T03:33:28;21.40;26.40
5130;DHT22;2583;50.946;6.954;2022-08-11T03:48:01;21.40;26.20
5130;DHT22;2583;50.946;6.954;2022-08-11T04:08:19;21.20;26.40
5130;DHT22;2583;50.946;6.954;2022-08-11T04:11:32;21.20;26.40
5130;DHT22;2583;50.946;6.954;2022-08-11T04:23:23;21.10;26.50
5130;DHT22;2583;50.946;6.954;2022-08-11T04:29:28;21.20;26.90
5130;DHT22;2583;50.946;6.954;2022-08-11T04:33:01;21.10;26.80
5130;DHT22;2583;50.946;6.954;2022-08-11T04:41:32;21.10;27.20
5130;DHT22;2583;50.946;6.954;2022-08-11T04:50:47;21.20;26.50
5130;DHT22;2583;50.946;6.954;2022-08-11T04:54:11;21.20;26.60
5130;DHT22;2583;50.946;6.954;2022-08-11T04:57:07;21.20;26.50
5130;DHT22;2583;50.946;6.954;2022-08-11T05:00:08;21.10;26.40
5130;DHT22;2583;50.946;6.954;2022-08-11T05:13:29;21.20;26.10
5130;DHT22;2583;50.946;6.954;2022-08-11T05:16:20;21.20;26.20
5130;DHT22;2583;50.946;6.954;2022-08-11T05:19:18;21.20;26.30
5130;DHT22;2583;50.946;6.954;2022-08-11T05:22:07;21.30;26.10
5130;DHT22;2583;50.946;6.954;2022-08-11T05:25:16;21.30;26.20
5130;DHT22;2583;50.946;6.954;2022-08-11T05:28:36;21.30;26.10
5130;DHT22;2583;50.946;6.954;2022-08-11T05:31:25;21.40;26.20
5130;DHT22;2583;50.946;6.954;2022-08-11T05:34:31;21.30;26.60
5130;DHT22;2583;50.946;6.954;2022-08-11T05:39:59;21.40;26.50
5130;DHT22;2583;50.946;6.954;2022-08-11T05:42:50;21.40;26.50
5130;DHT22;2583;50.946;6.954;2022-08-11T05:45:38;21.40;26.50
5130;DHT22;2583;50.946;6.954;2022-08-11T05:48:35;21.40;26.30
5130;DHT22;2583;50.946;6.954;2022-08-11T05:51:21;21.40;26.40
5130;DHT22;2583;50.946;6.954;2022-08-11T05:54:25;21.50;26.60
5130;DHT22;2583;50.946;6.954;2022-08-11T05:57:19;21.50;26.40
5130;DHT22;2583;50.946;6.954;2022-08-11T06:00:07;21.50;26.30
5130;DHT22;2583;50.946;6.954;2022-08-11T06:02:46;21.60;26.10
5130;DHT22;2583;50.946;6.954;2022-08-11T06:05:15;21.60;26.30
5130;DHT22;2583;50.946;6.954;2022-08-11T06:07:45;21.60;26.30
5130;DHT22;2583;50.946;6.954;2022-08-11T06:10:27;21.60;26.20
5130;DHT22;2583;50.946;6.954;2022-08-11T06:12:57;21.70;26.30
5130;DHT22;2583;50.946;6.954;2022-08-11T06:15:27;21.70;26.40
5130;DHT22;2583;50.946;6.954;2022-08-11T06:17:56;21.70;26.10
5130;DHT22;2583;50.946;6.954;2022-08-11T06:20:24;21.80;26.40
5130;DHT22;2583;50.946;6.954;2022-08-11T06:22:58;21.80;26.10
5130;DHT22;2583;50.946;6.954;2022-08-11T06:25:32;21.80;26.10
5130;DHT22;2583;50.946;6.954;2022-08-11T06:28:05;21.90;26.40
5130;DHT22;2583;50.946;6.954;2022-08-11T06:30:43;21.90;26.50
5130;DHT22;2583;50.946;6.954;2022-08-11T06:36:14;22.00;26.40
5130;DHT22;2583;50.946;6.954;2022-08-11T06:39:25;22.00;26.40
5130;DHT22;2583;50.946;6.954;2022-08-11T06:41:52;22.10;27.00
5130;DHT22;2583;50.946;6.954;2022-08-11T06:44:29;22.20;26.50
5130;DHT22;2583;50.946;6.954;2022-08-11T06:47:06;22.20;26.30
5130;DHT22;2583;50.946;6.954;2022-08-11T06:49:37;22.30;26.50
5130;DHT22;2583;50.946;6.954;2022-08-11T06:52:32;22.30;26.40
5130;DHT22;2583;50.946;6.954;2022-08-11T06:55:22;22.40;26.40
5130;DHT22;2583;50.946;6.954;2022-08-11T06:58:27;22.40;26.30
5130;DHT22;2583;50.946;6.954;2022-08-11T07:01:18;22.50;26.20
5130;DHT22;2583;50.946;6.954;2022-08-11T07:03:51;22.60;26.30
5130;DHT22;2583;50.946;6.954;2022-08-11T07:06:43;22.70;26.10
5130;DHT22;2583;50.946;6.954;2022-08-11T07:12:48;23.00;26.30
5130;DHT22;2583;50.946;6.954;2022-08-11T07:15:55;23.10;25.60
5130;DHT22;2583;50.946;6.954;2022-08-11T07:18:40;23.20;25.50
5130;DHT22;2583;50.946;6.954;2022-08-11T07:21:33;23.30;25.40
5130;DHT22;2583;50.946;6.954;2022-08-11T07:24:34;23.40;25.20
5130;DHT22;2583;50.946;6.954;2022-08-11T07:27:32;23.50;25.10
5130;DHT22;2583;50.946;6.954;2022-08-11T07:30:20;23.60;25.00
5130;DHT22;2583;50.946;6.954;2022-08-11T07:32:53;23.70;24.90
5130;DHT22;2583;50.946;6.954;2022-08-11T07:35:36;23.80;25.00
5130;DHT22;2583;50.946;6.954;2022-08-11T07:38:11;23.90;24.90
5130;DHT22;2583;50.946;6.954;2022-08-11T07:40:48;24.00;24.50
5130;DHT22;2583;50.946;6.954;2022-08-11T07:43:15;24.20;24.30
5130;DHT22;2583;50.946;6.954;2022-08-11T07:45:44;24.30;24.10
5130;DHT22;2583;50.946;6.954;2022-08-11T07:48:30;24.30;23.90
5130;DHT22;2583;50.946;6.954;2022-08-11T07:51:18;24.40;23.90
5130;DHT22;2583;50.946;6.954;2022-08-11T07:54:04;24.60;24.20
5130;DHT22;2583;50.946;6.954;2022-08-11T07:56:43;24.70;23.70
5130;DHT22;2583;50.946;6.954;2022-08-11T07:59:30;24.70;23.60
5130;DHT22;2583;50.946;6.954;2022-08-11T08:02:30;24.80;23.60
5130;DHT22;2583;50.946;6.954;2022-08-11T08:05:17;24.90;23.40
5130;DHT22;2583;50.946;6.954;2022-08-11T08:08:03;25.20;23.20
5130;DHT22;2583;50.946;6.954;2022-08-11T08:10:50;25.50;23.10
5130;DHT22;2583;50.946;6.954;2022-08-11T08:13:36;25.70;22.00
5130;DHT22;2583;50.946;6.954;2022-08-11T08:16:22;25.90;22.00
5130;DHT22;2583;50.946;6.954;2022-08-11T08:19:11;26.10;21.70
5130;DHT22;2583;50.946;6.954;2022-08-11T08:21:41;26.20;21.50
5130;DHT22;2583;50.946;6.954;2022-08-11T08:24:11;26.30;22.00
5130;DHT22;2583;50.946;6.954;2022-08-11T08:26:39;26.30;21.30
5130;DHT22;2583;50.946;6.954;2022-08-11T08:29:30;26.30;21.40
5130;DHT22;2583;50.946;6.954;2022-08-11T08:32:16;26.40;21.50
5130;DHT22;2583;50.946;6.954;2022-08-11T08:34:45;26.40;21.30
5130;DHT22;2583;50.946;6.954;2022-08-11T08:37:12;26.50;21.50
5130;DHT22;2583;50.946;6.954;2022-08-11T08:40:00;26.50;21.00
5130;DHT22;2583;50.946;6.954;2022-08-11T08:42:29;26.70;20.90
5130;DHT22;2583;50.946;6.954;2022-08-11T08:45:09;26.70;20.40
5130;DHT22;2583;50.946;6.954;2022-08-11T08:47:42;26.80;20.10
5130;DHT22;2583;50.946;6.954;2022-08-11T08:50:16;26.90;20.10
5130;DHT22;2583;50.946;6.954;2022-08-11T08:53:03;27.10;20.10
5130;DHT22;2583;50.946;6.954;2022-08-11T08:55:32;27.40;19.50
5130;DHT22;2583;50.946;6.954;2022-08-11T08:58:00;27.60;19.30
5130;DHT22;2583;50.946;6.954;2022-08-11T09:00:39;27.70;19.10
5130;DHT22;2583;50.946;6.954;2022-08-11T09:03:07;28.00;19.00
5130;DHT22;2583;50.946;6.954;2022-08-11T09:05:54;28.10;18.70
5130;DHT22;2583;50.946;6.954;2022-08-11T09:08:22;28.20;18.00
5130;DHT22;2583;50.946;6.954;2022-08-11T09:10:50;28.10;17.70
5130;DHT22;2583;50.946;6.954;2022-08-11T09:13:40;28.20;17.90
5130;DHT22;2583;50.946;6.954;2022-08-11T09:16:10;28.20;17.20
5130;DHT22;2583;50.946;6.954;2022-08-11T09:18:38;28.30;17.90
5130;DHT22;2583;50.946;6.954;2022-08-11T09:21:06;28.40;17.20
5130;DHT22;2583;50.946;6.954;2022-08-11T09:23:33;28.40;17.50
5130;DHT22;2583;50.946;6.954;2022-08-11T09:26:39;28.40;17.40
5130;DHT22;2583;50.946;6.954;2022-08-11T09:29:33;28.50;17.30
5130;DHT22;2583;50.946;6.954;2022-08-11T09:32:01;28.50;16.80
5130;DHT22;2583;50.946;6.954;2022-08-11T09:34:28;28.60;16.90
5130;DHT22;2583;50.946;6.954;2022-08-11T09:36:55;28.70;16.80
5130;DHT22;2583;50.946;6.954;2022-08-11T09:40:03;28.80;17.10
5130;DHT22;2583;50.946;6.954;2022-08-11T09:42:54;29.10;16.40
5130;DHT22;2583;50.946;6.954;2022-08-11T09:45:39;29.20;16.40
5130;DHT22;2583;50.946;6.954;2022-08-11T09:48:10;29.10;15.70
5130;DHT22;2583;50.946;6.954;2022-08-11T09:50:38;29.20;16.50
5130;DHT22;2583;50.946;6.954;2022-08-11T09:53:06;29.20;15.80
5130;DHT22;2583;50.946;6.954;2022-08-11T09:55:53;29.20;15.30
5130;DHT22;2583;50.946;6.954;2022-08-11T09:58:20;29.30;14.60
5130;DHT22;2583;50.946;6.954;2022-08-11T10:01:09;29.40;15.00
5130;DHT22;2583;50.946;6.954;2022-08-11T10:04:22;29.50;14.80
5130;DHT22;2583;50.946;6.954;2022-08-11T10:06:52;29.60;14.70
5130;DHT22;2583;50.946;6.954;2022-08-11T10:09:50;29.60;14.30
5130;DHT22;2583;50.946;6.954;2022-08-11T10:15:01;29.80;14.40
5130;DHT22;2583;50.946;6.954;2022-08-11T10:17:51;29.90;14.30
5130;DHT22;2583;50.946;6.954;2022-08-11T10:20:38;29.90;14.20
5130;DHT22;2583;50.946;6.954;2022-08-11T10:23:07;30.00;13.90
5130;DHT22;2583;50.946;6.954;2022-08-11T10:25:54;30.10;13.50
5130;DHT22;2583;50.946;6.954;2022-08-11T10:28:41;30.10;13.40
5130;DHT22;2583;50.946;6.954;2022-08-11T10:31:28;30.10;13.70
5130;DHT22;2583;50.946;6.954;2022-08-11T10:34:26;30.10;13.80
5130;DHT22;2583;50.946;6.954;2022-08-11T10:36:55;30.00;13.60
5130;DHT22;2583;50.946;6.954;2022-08-11T10:39:23;30.00;13.80
5130;DHT22;2583;50.946;6.954;2022-08-11T10:41:51;30.10;13.40
5130;DHT22;2583;50.946;6.954;2022-08-11T10:44:59;30.20;13.30
5130;DHT22;2583;50.946;6.954;2022-08-11T10:47:27;30.30;13.40
5130;DHT22;2583;50.946;6.954;2022-08-11T10:50:07;30.40;14.00
5130;DHT22;2583;50.946;6.954;2022-08-11T10:52:54;30.40;12.40
5130;DHT22;2583;50.946;6.954;2022-08-11T10:55:43;30.50;12.10
5130;DHT22;2583;50.946;6.954;2022-08-11T10:58:30;30.60;11.80
5130;DHT22;2583;50.946;6.954;2022-08-11T11:01:25;30.70;11.90
5130;DHT22;2583;50.946;6.954;2022-08-11T11:03:57;30.60;11.90
5130;DHT22;2583;50.946;6.954;2022-08-11T11:09:10;30.70;12.20
5130;DHT22;2583;50.946;6.954;2022-08-11T11:11:42;30.80;12.20
5130;DHT22;2583;50.946;6.954;2022-08-11T11:14:30;30.90;11.70
5130;DHT22;2583;50.946;6.954;2022-08-11T11:17:47;30.90;12.10
5130;DHT22;2583;50.946;6.954;2022-08-11T11:20:50;30.80;11.50
5130;DHT22;2583;50.946;6.954;2022-08-11T11:34:27;31.00;10.90
5130;DHT22;2583;50.946;6.954;2022-08-11T11:36:59;31.10;10.90
5130;DHT22;2583;50.946;6.954;2022-08-11T11:39:29;31.20;11.30
5130;DHT22;2583;50.946;6.954;2022-08-11T11:42:02;31.40;11.10
5130;DHT22;2583;50.946;6.954;2022-08-11T11:44:31;31.40;10.60
5130;DHT22;2583;50.946;6.954;2022-08-11T11:46:59;31.40;10.50
5130;DHT22;2583;50.946;6.954;2022-08-11T11:49:28;31.10;10.60
5130;DHT22;2583;50.946;6.954;2022-08-11T11:51:57;31.10;10.80
5130;DHT22;2583;50.946;6.954;2022-08-11T11:54:30;31.20;11.10
5130;DHT22;2583;50.946;6.954;2022-08-11T11:56:59;31.30;11.30
5130;DHT22;2583;50.946;6.954;2022-08-11T11:59:51;31.60;11.40
5130;DHT22;2583;50.946;6.954;2022-08-11T12:02:39;31.70;10.80
5130;DHT22;2583;50.946;6.954;2022-08-11T12:05:07;31.90;11.50
5130;DHT22;2583;50.946;6.954;2022-08-11T12:07:35;31.80;10.70
5130;DHT22;2583;50.946;6.954;2022-08-11T12:10:36;31.90;11.20
5130;DHT22;2583;50.946;6.954;2022-08-11T12:13:04;32.10;11.20
5130;DHT22;2583;50.946;6.954;2022-08-11T12:15:51;32.20;10.90
5130;DHT22;2583;50.946;6.954;2022-08-11T12:18:40;32.30;10.60
5130;DHT22;2583;50.946;6.954;2022-08-11T12:21:09;32.40;10.10
5130;DHT22;2583;50.946;6.954;2022-08-11T12:23:37;32.60;9.60
5130;DHT22;2583;50.946;6.954;2022-08-11T12:26:30;32.50;9.70
5130;DHT22;2583;50.946;6.954;2022-08-11T12:29:08;32.50;9.80
5130;DHT22;2583;50.946;6.954;2022-08-11T12:31:37;32.60;9.60
5130;DHT22;2583;50.946;6.954;2022-08-11T12:34:07;32.80;9.70
5130;DHT22;2583;50.946;6.954;2022-08-11T12:37:09;32.90;9.50
5130;DHT22;2583;50.946;6.954;2022-08-11T12:39:46;32.90;9.30
5130;DHT22;2583;50.946;6.954;2022-08-11T12:42:53;32.90;9.50
5130;DHT22;2583;50.946;6.954;2022-08-11T12:45:53;33.00;9.20
5130;DHT22;2583;50.946;6.954;2022-08-11T12:48:28;33.20;9.30
5130;DHT22;2583;50.946;6.954;2022-08-11T12:51:29;33.40;9.10
5130;DHT22;2583;50.946;6.954;2022-08-11T12:54:47;33.60;10.00
5130;DHT22;2583;50.946;6.954;2022-08-11T13:00:10;33.50;8.90
5130;DHT22;2583;50.946;6.954;2022-08-11T13:02:56;33.70;9.40
5130;DHT22;2583;50.946;6.954;2022-08-11T13:05:43;34.00;9.00
5130;DHT22;2583;50.946;6.954;2022-08-11T13:08:12;34.00;8.50
5130;DHT22;2583;50.946;6.954;2022-08-11T13:10:43;34.20;8.30
5130;DHT22;2583;50.946;6.954;2022-08-11T13:13:29;34.40;8.70
5130;DHT22;2583;50.946;6.954;2022-08-11T13:16:17;34.40;8.60
5130;DHT22;2583;50.946;6.954;2022-08-11T13:18:44;34.60;7.70
5130;DHT22;2583;50.946;6.954;2022-08-11T13:21:12;35.00;7.80
5130;DHT22;2583;50.946;6.954;2022-08-11T13:23:48;35.30;7.80
5130;DHT22;2583;50.946;6.954;2022-08-11T13:26:28;35.50;7.50
5130;DHT22;2583;50.946;6.954;2022-08-11T13:29:20;35.60;6.90
5130;DHT22;2583;50.946;6.954;2022-08-11T13:31:48;35.60;6.50
5130;DHT22;2583;50.946;6.954;2022-08-11T13:34:16;35.90;6.40
5130;DHT22;2583;50.946;6.954;2022-08-11T13:36:50;36.20;6.50
5130;DHT22;2583;50.946;6.954;2022-08-11T13:39:19;36.50;7.00
5130;DHT22;2583;50.946;6.954;2022-08-11T13:41:50;36.90;6.60
5130;DHT22;2583;50.946;6.954;2022-08-11T13:44:18;37.40;6.10
5130;DHT22;2583;50.946;6.954;2022-08-11T13:46:59;37.80;5.80
5130;DHT22;2583;50.946;6.954;2022-08-11T13:49:28;38.20;5.80
5130;DHT22;2583;50.946;6.954;2022-08-11T13:51:56;38.20;5.50
5130;DHT22;2583;50.946;6.954;2022-08-11T13:54:30;38.30;5.10
5130;DHT22;2583;50.946;6.954;2022-08-11T13:57:02;38.80;5.20
5130;DHT22;2583;50.946;6.954;2022-08-11T13:59:35;39.00;4.90
5130;DHT22;2583;50.946;6.954;2022-08-11T14:02:20;39.20;5.00
5130;DHT22;2583;50.946;6.954;2022-08-11T14:05:04;39.60;4.60
5130;DHT22;2583;50.946;6.954;2022-08-11T14:07:48;39.40;4.00
5130;DHT22;2583;50.946;6.954;2022-08-11T14:10:18;39.60;4.30
5130;DHT22;2583;50.946;6.954;2022-08-11T14:12:53;40.00;4.60
5130;DHT22;2583;50.946;6.954;2022-08-11T14:15:43;40.30;4.00
5130;DHT22;2583;50.946;6.954;2022-08-11T14:18:29;40.20;3.80
5130;DHT22;2583;50.946;6.954;2022-08-11T14:20:59;39.80;4.00
5130;DHT22;2583;50.946;6.954;2022-08-11T14:23:47;39.80;3.90
5130;DHT22;2583;50.946;6.954;2022-08-11T14:26:17;39.10;4.00
5130;DHT22;2583;50.946;6.954;2022-08-11T14:29:00;38.10;4.80
5130;DHT22;2583;50.946;6.954;2022-08-11T14:31:29;37.20;5.10
5130;DHT22;2583;50.946;6.954;2022-08-11T14:34:01;36.30;5.20
5130;DHT22;2583;50.946;6.954;2022-08-11T14:36:37;35.50;5.90
5130;DHT22;2583;50.946;6.954;2022-08-11T14:39:16;35.00;6.30
5130;DHT22;2583;50.946;6.954;2022-08-11T14:41:47;34.40;6.70
5130;DHT22;2583;50.946;6.954;2022-08-11T14:45:02;34.00;6.90
5130;DHT22;2583;50.946;6.954;2022-08-11T14:47:52;33.80;7.50
5130;DHT22;2583;50.946;6.954;2022-08-11T14:50:24;33.50;7.40
5130;DHT22;2583;50.946;6.954;2022-08-11T14:52:55;33.40;7.40
5130;DHT22;2583;50.946;6.954;2022-08-11T14:55:28;33.20;7.50
5130;DHT22;2583;50.946;6.954;2022-08-11T14:58:18;33.10;7.50
5130;DHT22;2583;50.946;6.954;2022-08-11T15:00:46;33.00;7.90
5130;DHT22;2583;50.946;6.954;2022-08-11T15:03:16;32.80;8.00
5130;DHT22;2583;50.946;6.954;2022-08-11T15:05:51;32.80;7.90
5130;DHT22;2583;50.946;6.954;2022-08-11T15:08:29;32.80;8.00
5130;DHT22;2583;50.946;6.954;2022-08-11T15:11:17;32.70;8.00
5130;DHT22;2583;50.946;6.954;2022-08-11T15:14:05;32.70;8.30
5130;DHT22;2583;50.946;6.954;2022-08-11T15:16:32;32.60;8.20
5130;DHT22;2583;50.946;6.954;2022-08-11T15:19:19;32.70;8.10
5130;DHT22;2583;50.946;6.954;2022-08-11T15:21:49;32.60;8.40
5130;DHT22;2583;50.946;6.954;2022-08-11T15:24:36;32.60;8.20
5130;DHT22;2583;50.946;6.954;2022-08-11T15:27:13;32.60;8.30
5130;DHT22;2583;50.946;6.954;2022-08-11T15:30:02;32.40;8.40
5130;DHT22;2583;50.946;6.954;2022-08-11T15:33:05;32.40;8.30
5130;DHT22;2583;50.946;6.954;2022-08-11T15:35:52;32.30;8.40
5130;DHT22;2583;50.946;6.954;2022-08-11T15:39:00;32.20;8.40
5130;DHT22;2583;50.946;6.954;2022-08-11T15:42:06;32.30;8.50
5130;DHT22;2583;50.946;6.954;2022-08-11T15:44:49;32.30;8.80
5130;DHT22;2583;50.946;6.954;2022-08-11T15:47:43;32.20;8.50
5130;DHT22;2583;50.946;6.954;2022-08-11T15:50:17;32.10;8.40
5130;DHT22;2583;50.946;6.954;2022-08-11T15:52:52;32.20;8.80
5130;DHT22;2583;50.946;6.954;2022-08-11T15:55:21;32.20;8.60
5130;DHT22;2583;50.946;6.954;2022-08-11T15:57:51;32.20;8.70
5130;DHT22;2583;50.946;6.954;2022-08-11T16:00:38;32.10;8.80
5130;DHT22;2583;50.946;6.954;2022-08-11T16:03:56;32.00;8.70
5130;DHT22;2583;50.946;6.954;2022-08-11T16:09:19;32.00;8.60
5130;DHT22;2583;50.946;6.954;2022-08-11T16:11:47;32.00;8.70
5130;DHT22;2583;50.946;6.954;2022-08-11T16:14:15;32.00;8.90
5130;DHT22;2583;50.946;6.954;2022-08-11T16:17:03;32.00;8.80
5130;DHT22;2583;50.946;6.954;2022-08-11T16:19:32;31.90;8.80
5130;DHT22;2583;50.946;6.954;2022-08-11T16:22:05;31.90;9.20
5130;DHT22;2583;50.946;6.954;2022-08-11T16:24:40;31.90;9.40
5130;DHT22;2583;50.946;6.954;2022-08-11T16:27:30;32.00;9.40
5130;DHT22;2583;50.946;6.954;2022-08-11T16:30:00;32.00;9.10
5130;DHT22;2583;50.946;6.954;2022-08-11T16:32:28;31.90;9.50
5130;DHT22;2583;50.946;6.954;2022-08-11T16:34:59;31.80;8.80
5130;DHT22;2583;50.946;6.954;2022-08-11T16:37:46;31.80;8.90
5130;DHT22;2583;50.946;6.954;2022-08-11T16:40:32;31.80;9.10
5130;DHT22;2583;50.946;6.954;2022-08-11T16:43:00;31.80;9.00
5130;DHT22;2583;50.946;6.954;2022-08-11T16:45:48;31.80;9.00
5130;DHT22;2583;50.946;6.954;2022-08-11T16:48:35;31.70;9.00
5130;DHT22;2583;50.946;6.954;2022-08-11T16:51:10;31.70;9.20
5130;DHT22;2583;50.946;6.954;2022-08-11T16:53:37;31.60;9.30
5130;DHT22;2583;50.946;6.954;2022-08-11T16:57:04;31.60;8.50
5130;DHT22;2583;50.946;6.954;2022-08-11T16:59:47;31.60;9.00
5130;DHT22;2583;50.946;6.954;2022-08-11T17:02:23;31.60;9.20
5130;DHT22;2583;50.946;6.954;2022-08-11T17:05:16;31.60;8.90
5130;DHT22;2583;50.946;6.954;2022-08-11T17:08:31;31.50;8.90
5130;DHT22;2583;50.946;6.954;2022-08-11T17:11:25;31.50;8.70
5130;DHT22;2583;50.946;6.954;2022-08-11T17:14:15;31.50;8.70
5130;DHT22;2583;50.946;6.954;2022-08-11T17:16:44;31.50;9.40
5130;DHT22;2583;50.946;6.954;2022-08-11T17:19:27;31.40;9.00
5130;DHT22;2583;50.946;6.954;2022-08-11T17:22:18;31.40;9.00
5130;DHT22;2583;50.946;6.954;2022-08-11T17:25:05;31.30;9.80
5130;DHT22;2583;50.946;6.954;2022-08-11T17:27:34;31.30;9.40
5130;DHT22;2583;50.946;6.954;2022-08-11T17:30:04;31.30;9.40
5130;DHT22;2583;50.946;6.954;2022-08-11T17:32:35;31.20;9.60
5130;DHT22;2583;50.946;6.954;2022-08-11T17:35:36;31.20;9.20
5130;DHT22;2583;50.946;6.954;2022-08-11T17:38:16;31.10;9.40
5130;DHT22;2583;50.946;6.954;2022-08-11T17:40:54;31.00;9.50
5130;DHT22;2583;50.946;6.954;2022-08-11T17:43:50;31.00;9.70
5130;DHT22;2583;50.946;6.954;2022-08-11T17:46:38;30.90;9.80
5130;DHT22;2583;50.946;6.954;2022-08-11T17:49:33;30.90;9.90
5130;DHT22;2583;50.946;6.954;2022-08-11T17:52:04;30.80;9.90
5130;DHT22;2583;50.946;6.954;2022-08-11T17:54:52;30.80;10.10
5130;DHT22;2583;50.946;6.954;2022-08-11T17:57:40;30.80;9.90
5130;DHT22;2583;50.946;6.954;2022-08-11T18:00:26;30.70;10.20
5130;DHT22;2583;50.946;6.954;2022-08-11T18:02:54;30.70;10.00
5130;DHT22;2583;50.946;6.954;2022-08-11T18:05:43;30.70;10.10
5130;DHT22;2583;50.946;6.954;2022-08-11T18:08:12;30.60;10.20
5130;DHT22;2583;50.946;6.954;2022-08-11T18:10:59;30.60;10.40
5130;DHT22;2583;50.946;6.954;2022-08-11T18:14:07;30.60;10.30
5130;DHT22;2583;50.946;6.954;2022-08-11T18:16:53;30.50;10.40
5130;DHT22;2583;50.946;6.954;2022-08-11T18:19:39;30.40;10.40
5130;DHT22;2583;50.946;6.954;2022-08-11T18:22:28;30.40;10.80
5130;DHT22;2583;50.946;6.954;2022-08-11T18:25:25;30.30;11.00
5130;DHT22;2583;50.946;6.954;2022-08-11T18:28:14;30.30;11.10
5130;DHT22;2583;50.946;6.954;2022-08-11T18:31:02;30.20;11.20
5130;DHT22;2583;50.946;6.954;2022-08-11T18:33:55;30.20;11.10
5130;DHT22;2583;50.946;6.954;2022-08-11T18:36:48;30.20;10.60
5130;DHT22;2583;50.946;6.954;2022-08-11T18:39:49;30.10;10.90
5130;DHT22;2583;50.946;6.954;2022-08-11T18:42:39;30.00;10.80
5130;DHT22;2583;50.946;6.954;2022-08-11T18:45:26;30.00;10.90
5130;DHT22;2583;50.946;6.954;2022-08-11T18:48:20;29.90;10.80
5130;DHT22;2583;50.946;6.954;2022-08-11T18:51:08;29.80;10.80
5130;DHT22;2583;50.946;6.954;2022-08-11T18:54:06;29.70;10.60
5130;DHT22;2583;50.946;6.954;2022-08-11T18:56:54;29.60;10.80
5130;DHT22;2583;50.946;6.954;2022-08-11T18:59:41;29.60;11.30
5130;DHT22;2583;50.946;6.954;2022-08-11T19:02:30;29.50;11.70
5130;DHT22;2583;50.946;6.954;2022-08-11T19:05:21;29.40;12.20
5130;DHT22;2583;50.946;6.954;2022-08-11T19:08:30;29.30;11.90
5130;DHT22;2583;50.946;6.954;2022-08-11T19:11:20;29.20;12.30
5130;DHT22;2583;50.946;6.954;2022-08-11T19:14:11;29.00;12.40
5130;DHT22;2583;50.946;6.954;2022-08-11T19:16:59;29.00;12.30
5130;DHT22;2583;50.946;6.954;2022-08-11T19:20:08;28.90;12.60
5130;DHT22;2583;50.946;6.954;2022-08-11T19:22:56;28.80;12.70
5130;DHT22;2583;50.946;6.954;2022-08-11T19:25:44;28.60;13.00
5130;DHT22;2583;50.946;6.954;2022-08-11T19:28:32;28.60;13.30
5130;DHT22;2583;50.946;6.954;2022-08-11T19:31:19;28.40;13.70
5130;DHT22;2583;50.946;6.954;2022-08-11T19:34:13;28.40;13.70
5130;DHT22;2583;50.946;6.954;2022-08-11T19:37:03;28.30;13.60
5130;DHT22;2583;50.946;6.954;2022-08-11T19:40:00;28.30;13.60
5130;DHT22;2583;50.946;6.954;2022-08-11T19:42:46;28.20;13.70
5130;DHT22;2583;50.946;6.954;2022-08-11T19:45:51;28.10;13.50
5130;DHT22;2583;50.946;6.954;2022-08-11T19:48:37;28.10;13.30
5130;DHT22;2583;50.946;6.954;2022-08-11T19:51:23;28.10;13.50
5130;DHT22;2583;50.946;6.954;2022-08-11T19:54:09;28.10;13.40
5130;DHT22;2583;50.946;6.954;2022-08-11T19:56:55;28.00;13.50
5130;DHT22;2583;50.946;6.954;2022-08-11T19:59:41;28.00;13.80
5130;DHT22;2583;50.946;6.954;2022-08-11T20:02:27;27.90;14.00
5130;DHT22;2583;50.946;6.954;2022-08-11T20:05:13;27.80;14.00
5130;DHT22;2583;50.946;6.954;2022-08-11T20:07:58;27.80;14.10
5130;DHT22;2583;50.946;6.954;2022-08-11T20:10:46;27.70;14.20
5130;DHT22;2583;50.946;6.954;2022-08-11T20:13:31;27.60;14.30
5130;DHT22;2583;50.946;6.954;2022-08-11T20:16:19;27.60;14.30
5130;DHT22;2583;50.946;6.954;2022-08-11T20:19:06;27.50;14.40
5130;DHT22;2583;50.946;6.954;2022-08-11T20:22:14;27.50;14.50
5130;DHT22;2583;50.946;6.954;2022-08-11T20:25:02;27.40;14.50
5130;DHT22;2583;50.946;6.954;2022-08-11T20:27:49;27.30;14.60
5130;DHT22;2583;50.946;6.954;2022-08-11T20:30:36;27.30;14.60
5130;DHT22;2583;50.946;6.954;2022-08-11T20:33:23;27.20;14.80
5130;DHT22;2583;50.946;6.954;2022-08-11T20:36:10;27.20;14.90
5130;DHT22;2583;50.946;6.954;2022-08-11T20:38:59;27.10;15.10
5130;DHT22;2583;50.946;6.954;2022-08-11T20:41:46;27.10;15.40
5130;DHT22;2583;50.946;6.954;2022-08-11T20:44:33;27.00;15.40
5130;DHT22;2583;50.946;6.954;2022-08-11T20:47:20;27.00;15.70
5130;DHT22;2583;50.946;6.954;2022-08-11T20:50:26;26.90;16.00
5130;DHT22;2583;50.946;6.954;2022-08-11T20:53:15;26.90;16.30